Terminal Aerodrome Forecast
Issued by NWS

Home | Current Version | Previous Version | Text Only | Print | Product List | Glossary On
Versions: 1 2 3 4 5 6 7 8 9 10 11 12 13 14 15 16 17 18 19 20
000
FTUS41 KPBZ 302300
TAFHLG
TAF
KHLG 302320Z 3100/3124 VRB05KT P6SM BKN060
      TEMPO 3100/3102 5SM -RA BR
     FM311000 21010G18KT P6SM SCT060
      TEMPO 3110/3113 3SM BR
     FM312300 VRB05KT P6SM SKC=

USA.gov is the U.S. government's official web portal to all federal, state and local government web resources and services.